createdAt,value
2023-05-18T00:02:05.946Z,3.45
2023-05-18T00:04:34.575Z,3.72
2023-05-18T00:07:06.883Z,4.50
2023-05-18T00:09:36.958Z,3.45
2023-05-18T00:12:05.575Z,3.70
2023-05-18T00:14:32.587Z,4.03
2023-05-18T00:17:01.837Z,3.65
2023-05-18T00:19:30.114Z,3.88
2023-05-18T00:21:57.998Z,3.80
2023-05-18T00:24:25.175Z,4.65
2023-05-18T00:26:52.051Z,3.70
2023-05-18T00:29:19.018Z,4.28
2023-05-18T00:31:47.012Z,3.90
2023-05-18T00:34:15.578Z,3.75
2023-05-18T00:36:43.009Z,4.13
2023-05-18T00:39:10.334Z,4.88
2023-05-18T00:41:37.374Z,3.63
2023-05-18T00:44:05.117Z,4.18
2023-05-18T00:46:32.458Z,3.78
2023-05-18T00:49:01.871Z,4.00
2023-05-18T00:51:29.972Z,4.15
2023-05-18T00:54:00.214Z,3.63
2023-05-18T00:56:28.482Z,4.28
2023-05-18T00:58:57.460Z,4.40
2023-05-18T01:01:30.747Z,3.80
2023-05-18T01:04:02.169Z,4.22
2023-05-18T01:06:36.039Z,3.97
2023-05-18T01:09:07.049Z,4.40
2023-05-18T01:11:57.143Z,4.25
2023-05-18T01:14:35.006Z,4.07
2023-05-18T01:17:24.242Z,3.95
2023-05-18T01:20:00.063Z,4.30
2023-05-18T01:23:01.953Z,4.07
2023-05-18T01:26:12.079Z,3.75
2023-05-18T01:28:40.393Z,4.70
2023-05-18T01:31:08.059Z,3.60
2023-05-18T01:33:35.116Z,4.15
2023-05-18T01:36:02.094Z,4.25
2023-05-18T01:38:29.380Z,4.63
2023-05-18T01:41:18.536Z,4.55
2023-05-18T01:44:06.401Z,4.25
2023-05-18T01:46:41.242Z,4.18
2023-05-18T01:49:27.210Z,4.22
2023-05-18T01:54:23.486Z,4.55
2023-05-18T01:56:52.202Z,4.55
2023-05-18T01:59:19.299Z,4.60
2023-05-18T02:01:46.295Z,4.00
2023-05-18T02:04:15.689Z,5.07
2023-05-18T02:06:43.038Z,4.38
2023-05-18T02:09:09.956Z,3.95
2023-05-18T02:11:36.971Z,4.93
2023-05-18T02:14:03.910Z,4.32
2023-05-18T02:16:30.941Z,3.97
2023-05-18T02:18:58.115Z,3.67
2023-05-18T02:21:26.087Z,4.10
2023-05-18T02:23:53.179Z,4.10
2023-05-18T02:26:20.946Z,3.67
2023-05-18T02:28:52.556Z,4.72
2023-05-18T02:31:19.542Z,3.97
2023-05-18T02:33:46.726Z,4.75
2023-05-18T02:36:14.896Z,3.72
2023-05-18T02:38:43.446Z,3.50
2023-05-18T02:41:12.064Z,4.13
2023-05-18T02:43:39.084Z,3.95
2023-05-18T02:46:07.558Z,3.92
2023-05-18T02:48:34.640Z,3.70
2023-05-18T02:51:01.540Z,4.15
2023-05-18T02:53:28.446Z,3.75
2023-05-18T02:56:03.928Z,4.03
2023-05-18T02:58:47.247Z,3.73
2023-05-18T03:01:22.140Z,3.65
2023-05-18T03:03:53.226Z,3.90
2023-05-18T03:06:26.430Z,4.40
2023-05-18T03:08:54.849Z,3.97
2023-05-18T03:11:26.584Z,3.95
2023-05-18T03:13:54.769Z,5.32
2023-05-18T03:16:21.716Z,3.90
2023-05-18T03:18:48.684Z,4.28
2023-05-18T03:21:16.667Z,4.55
2023-05-18T03:23:43.672Z,4.05
2023-05-18T03:26:11.784Z,3.70
2023-05-18T03:28:39.661Z,4.47
2023-05-18T03:31:06.870Z,4.20
2023-05-18T03:33:34.353Z,4.68
2023-05-18T03:36:03.822Z,4.40
2023-05-18T03:38:31.573Z,3.80
2023-05-18T03:41:04.569Z,4.00
2023-05-18T03:43:32.541Z,3.90
2023-05-18T03:46:01.186Z,3.67
2023-05-18T03:48:28.168Z,4.05
2023-05-18T03:50:55.651Z,3.88
2023-05-18T03:53:23.087Z,3.83
2023-05-18T03:55:51.756Z,3.80
2023-05-18T03:58:22.466Z,3.85
2023-05-18T04:00:49.736Z,3.47
2023-05-18T04:03:17.069Z,4.05
2023-05-18T04:05:44.422Z,3.60
2023-05-18T04:08:14.567Z,3.15
2023-05-18T04:10:43.367Z,3.35
2023-05-18T04:13:10.550Z,4.03
2023-05-18T04:15:38.043Z,3.63
2023-05-18T04:18:05.753Z,4.07
2023-05-18T04:20:32.777Z,3.17
2023-05-18T04:23:01.123Z,3.45
2023-05-18T04:25:28.705Z,3.60
2023-05-18T04:27:56.819Z,3.50
2023-05-18T04:30:27.454Z,3.97
2023-05-18T04:32:54.780Z,3.00
2023-05-18T04:35:22.185Z,3.55
2023-05-18T04:37:49.259Z,3.00
2023-05-18T04:40:17.868Z,3.13
2023-05-18T04:42:47.717Z,3.00
2023-05-18T04:45:20.523Z,3.85
2023-05-18T04:47:53.255Z,3.15
2023-05-18T04:50:23.924Z,2.80
2023-05-18T04:52:52.134Z,2.90
2023-05-18T04:55:29.501Z,3.80
2023-05-18T04:58:00.449Z,3.58
2023-05-18T05:00:29.502Z,3.25
2023-05-18T05:02:57.784Z,2.95
2023-05-18T05:05:25.926Z,3.80
2023-05-18T05:07:53.753Z,3.38
2023-05-18T05:10:21.116Z,3.75
2023-05-18T05:12:49.991Z,3.50
2023-05-18T05:15:18.317Z,3.10
2023-05-18T05:17:47.312Z,3.40
2023-05-18T05:20:14.534Z,3.28
2023-05-18T05:22:42.307Z,3.17
2023-05-18T05:25:11.950Z,3.08
2023-05-18T05:27:39.707Z,3.17
2023-05-18T05:30:07.468Z,3.25
2023-05-18T05:32:36.992Z,2.85
2023-05-18T05:35:06.103Z,3.25
2023-05-18T05:37:33.667Z,2.97
2023-05-18T05:40:01.374Z,3.03
2023-05-18T05:42:30.984Z,3.03
2023-05-18T05:44:58.208Z,3.13
2023-05-18T05:47:26.915Z,2.95
2023-05-18T05:49:54.820Z,3.17
2023-05-18T05:52:22.348Z,2.90
2023-05-18T05:54:49.497Z,3.45
2023-05-18T05:57:16.444Z,3.08
2023-05-18T05:59:44.731Z,3.25
2023-05-18T06:02:12.335Z,3.22
2023-05-18T06:04:40.618Z,3.05
2023-05-18T06:07:07.692Z,2.88
2023-05-18T06:09:34.821Z,3.47
2023-05-18T06:12:02.012Z,3.50
2023-05-18T06:14:29.458Z,3.40
2023-05-18T06:16:57.795Z,3.67
2023-05-18T06:19:25.070Z,3.08
2023-05-18T06:21:53.276Z,3.25
2023-05-18T06:24:20.224Z,3.10
2023-05-18T06:29:37.597Z,3.30
2023-05-18T06:32:13.720Z,3.05
2023-05-18T06:34:45.785Z,3.28
2023-05-18T06:37:13.057Z,3.28
2023-05-18T06:39:40.482Z,3.15
2023-05-18T06:42:07.913Z,2.97
2023-05-18T06:44:35.904Z,3.55
2023-05-18T06:47:09.816Z,2.90
2023-05-18T06:49:37.036Z,3.28
2023-05-18T06:52:04.683Z,3.38
2023-05-18T06:54:32.566Z,3.35
2023-05-18T06:57:00.285Z,2.90
2023-05-18T06:59:27.654Z,3.65
2023-05-18T07:01:54.652Z,3.10
2023-05-18T07:04:23.706Z,2.97
2023-05-18T07:06:51.503Z,3.00
2023-05-18T07:09:18.503Z,2.92
2023-05-18T07:11:45.524Z,3.47
2023-05-18T07:14:12.455Z,3.08
2023-05-18T07:16:39.655Z,3.10
2023-05-18T07:19:06.751Z,3.17
2023-05-18T07:21:34.506Z,3.60
2023-05-18T07:24:01.596Z,3.20
2023-05-18T07:26:29.721Z,2.78
2023-05-18T07:28:56.637Z,3.17
2023-05-18T07:31:23.540Z,2.97
2023-05-18T07:33:50.607Z,3.42
2023-05-18T07:36:17.486Z,2.90
2023-05-18T07:38:44.627Z,3.30
2023-05-18T07:41:11.498Z,3.03
2023-05-18T07:43:38.576Z,3.35
2023-05-18T07:46:05.624Z,3.45
2023-05-18T07:48:32.560Z,3.28
2023-05-18T07:50:59.612Z,3.75
2023-05-18T07:53:26.688Z,2.78
2023-05-18T07:55:53.560Z,3.50
2023-05-18T07:58:20.490Z,3.38
2023-05-18T08:00:47.490Z,2.83
2023-05-18T08:03:14.534Z,2.88
2023-05-18T08:05:41.966Z,3.17
2023-05-18T08:08:11.910Z,2.97
2023-05-18T08:10:38.943Z,3.70
2023-05-18T08:13:05.789Z,3.30
2023-05-18T08:15:33.167Z,3.20
2023-05-18T08:18:01.676Z,3.50
2023-05-18T08:20:30.179Z,3.50
2023-05-18T08:22:57.538Z,3.78
2023-05-18T08:25:25.624Z,4.13
2023-05-18T08:27:52.974Z,2.95
2023-05-18T08:30:21.599Z,3.25
2023-05-18T08:32:48.889Z,3.35
2023-05-18T08:35:15.864Z,3.25
2023-05-18T08:37:42.759Z,3.33
2023-05-18T08:40:11.562Z,3.35
2023-05-18T08:43:00.514Z,3.35
2023-05-18T08:45:42.729Z,3.10
2023-05-18T08:48:11.433Z,2.83
2023-05-18T08:50:41.152Z,3.47
2023-05-18T08:53:10.728Z,3.15
2023-05-18T08:55:38.200Z,3.40
2023-05-18T08:58:07.743Z,3.30
2023-05-18T09:00:35.174Z,3.53
2023-05-18T09:03:05.015Z,3.25
2023-05-18T09:05:32.571Z,3.03
2023-05-18T09:08:00.533Z,3.33
2023-05-18T09:10:28.269Z,3.30
2023-05-18T09:12:56.815Z,3.83
2023-05-18T09:15:25.437Z,4.15
2023-05-18T09:17:52.777Z,3.65
2023-05-18T09:20:20.921Z,3.15
2023-05-18T09:22:51.332Z,3.72
2023-05-18T09:25:19.021Z,3.72
2023-05-18T09:27:47.883Z,3.47
2023-05-18T09:30:14.879Z,3.30
2023-05-18T09:32:42.421Z,3.50
2023-05-18T09:35:09.783Z,3.63
2023-05-18T09:37:37.161Z,3.10
2023-05-18T09:40:09.055Z,3.25
2023-05-18T09:42:40.659Z,3.70
2023-05-18T09:45:17.639Z,3.13
2023-05-18T09:47:45.215Z,3.50
2023-05-18T09:50:12.438Z,4.22
2023-05-18T09:52:43.937Z,3.35
2023-05-18T09:55:11.946Z,3.47
2023-05-18T09:57:41.598Z,3.70
2023-05-18T10:00:12.668Z,3.42
2023-05-18T10:02:48.717Z,3.70
2023-05-18T10:05:36.014Z,3.63
2023-05-18T10:08:03.384Z,3.80
2023-05-18T10:10:30.796Z,3.70
2023-05-18T10:12:58.701Z,3.67
2023-05-18T10:15:26.082Z,3.58
2023-05-18T10:17:57.063Z,3.50
2023-05-18T10:20:26.805Z,3.65
2023-05-18T10:22:56.013Z,3.55
2023-05-18T10:25:25.632Z,3.80
2023-05-18T10:27:57.509Z,4.13
2023-05-18T10:30:24.635Z,3.88
2023-05-18T10:32:52.468Z,3.97
2023-05-18T10:35:19.829Z,3.55
2023-05-18T10:37:48.078Z,3.28
2023-05-18T10:40:15.838Z,3.80
2023-05-18T10:42:43.676Z,3.78
2023-05-18T10:45:10.878Z,3.85
2023-05-18T10:47:42.392Z,3.95
2023-05-18T10:50:10.207Z,4.03
2023-05-18T10:52:38.022Z,3.90
2023-05-18T10:55:06.855Z,4.28
2023-05-18T10:57:44.691Z,4.15
2023-05-18T11:00:12.365Z,4.10
2023-05-18T11:02:42.997Z,4.70
2023-05-18T11:05:11.799Z,4.38
2023-05-18T11:07:39.033Z,4.00
2023-05-18T11:10:10.810Z,4.30
2023-05-18T11:12:40.088Z,4.53
2023-05-18T11:15:08.026Z,4.10
2023-05-18T11:17:35.328Z,4.15
2023-05-18T11:20:08.770Z,4.53
2023-05-18T11:23:01.975Z,4.32
2023-05-18T11:25:29.050Z,4.57
2023-05-18T11:28:07.681Z,4.18
2023-05-18T11:30:34.876Z,4.78
2023-05-18T11:33:36.558Z,4.50
2023-05-18T11:36:08.851Z,4.85
2023-05-18T11:38:50.449Z,4.68
2023-05-18T11:41:35.290Z,4.97
2023-05-18T11:44:12.622Z,4.93
2023-05-18T11:46:52.024Z,4.82
2023-05-18T11:49:22.002Z,4.45
2023-05-18T11:52:05.966Z,4.88
2023-05-18T11:54:43.400Z,4.72
2023-05-18T11:57:11.456Z,4.88
2023-05-18T11:59:43.120Z,4.82
2023-05-18T12:02:11.989Z,4.47
2023-05-18T12:05:07.003Z,3.97
2023-05-18T12:07:35.529Z,4.72
2023-05-18T12:10:07.406Z,4.70
2023-05-18T12:12:34.933Z,4.93
2023-05-18T12:15:06.910Z,4.75
2023-05-18T12:17:40.746Z,4.90
2023-05-18T12:20:11.236Z,4.88
2023-05-18T12:22:53.651Z,5.50
2023-05-18T12:25:23.314Z,4.65
2023-05-18T12:27:51.800Z,4.90
2023-05-18T12:30:20.217Z,4.70
2023-05-18T12:32:52.307Z,5.63
2023-05-18T12:35:27.351Z,5.63
2023-05-18T12:38:00.316Z,5.28
2023-05-18T12:40:28.317Z,6.10
2023-05-18T12:42:57.161Z,5.28
2023-05-18T12:45:26.876Z,5.32
2023-05-18T12:47:55.334Z,4.95
2023-05-18T12:50:24.966Z,6.60
2023-05-18T12:52:52.368Z,5.07
2023-05-18T12:55:21.923Z,4.78
2023-05-18T12:58:02.555Z,5.82
2023-05-18T13:00:36.565Z,5.78
2023-05-18T13:03:15.928Z,5.63
2023-05-18T13:05:45.554Z,5.63
2023-05-18T13:08:21.951Z,4.82
2023-05-18T13:11:01.390Z,5.38
2023-05-18T13:13:33.084Z,5.68
2023-05-18T13:16:00.514Z,5.45
2023-05-18T13:18:28.462Z,5.78
2023-05-18T13:20:57.004Z,5.55
2023-05-18T13:23:28.787Z,5.30
2023-05-18T13:25:58.664Z,6.80
2023-05-18T13:28:27.364Z,6.15
2023-05-18T13:30:54.608Z,6.18
2023-05-18T13:33:21.711Z,5.15
2023-05-18T13:35:49.785Z,6.32
2023-05-18T13:38:17.017Z,5.72
2023-05-18T13:40:45.913Z,6.13
2023-05-18T13:43:13.976Z,5.93
2023-05-18T13:45:41.724Z,6.38
2023-05-18T13:48:11.003Z,5.97
2023-05-18T13:50:39.505Z,5.25
2023-05-18T13:53:07.024Z,5.38
2023-05-18T13:55:34.880Z,5.68
2023-05-18T13:58:01.889Z,4.88
2023-05-18T14:00:28.884Z,4.65
2023-05-18T14:02:57.103Z,5.97
2023-05-18T14:05:24.524Z,5.70
2023-05-18T14:07:54.706Z,5.45
2023-05-18T14:10:21.801Z,4.93
2023-05-18T14:12:49.066Z,5.05
2023-05-18T14:15:16.201Z,4.68
2023-05-18T14:17:43.595Z,5.72
2023-05-18T14:20:12.118Z,5.75
2023-05-18T14:22:39.448Z,4.75
2023-05-18T14:25:06.672Z,5.97
2023-05-18T14:27:33.566Z,5.30
2023-05-18T14:30:01.283Z,5.18
2023-05-18T14:32:28.542Z,4.78
2023-05-18T14:34:57.863Z,5.47
2023-05-18T14:37:25.183Z,5.60
2023-05-18T14:39:52.338Z,5.45
2023-05-18T14:42:19.257Z,5.22
2023-05-18T14:44:46.828Z,5.18
2023-05-18T14:47:13.860Z,6.00
2023-05-18T14:49:40.910Z,4.60
2023-05-18T14:52:07.855Z,4.82
2023-05-18T14:54:35.033Z,4.80
2023-05-18T14:57:02.008Z,4.88
2023-05-18T14:59:28.925Z,5.28
2023-05-18T15:01:55.926Z,4.60
2023-05-18T15:04:23.611Z,5.00
2023-05-18T15:06:50.792Z,5.75
2023-05-18T15:09:17.682Z,5.75
2023-05-18T15:11:44.786Z,5.40
2023-05-18T15:14:11.660Z,5.35
2023-05-18T15:16:39.014Z,4.90
2023-05-18T15:19:06.309Z,5.20
2023-05-18T15:21:33.349Z,4.72
2023-05-18T15:24:00.397Z,5.45
2023-05-18T15:26:27.753Z,5.28
2023-05-18T15:28:54.751Z,5.05
2023-05-18T15:31:21.815Z,4.78
2023-05-18T15:33:48.807Z,4.82
2023-05-18T15:36:16.103Z,4.93
2023-05-18T15:38:43.009Z,5.65
2023-05-18T15:41:09.946Z,5.03
2023-05-18T15:43:37.531Z,4.70
2023-05-18T15:46:05.306Z,5.53
2023-05-18T15:48:32.198Z,4.97
2023-05-18T15:50:59.211Z,4.95
2023-05-18T15:53:26.158Z,5.22
2023-05-18T15:55:57.423Z,4.38
2023-05-18T15:58:26.642Z,5.07
2023-05-18T16:00:53.844Z,5.50
2023-05-18T16:03:21.436Z,5.13
2023-05-18T16:05:48.580Z,5.00
2023-05-18T16:08:15.514Z,5.13
2023-05-18T16:10:42.392Z,5.63
2023-05-18T16:13:09.529Z,4.85
2023-05-18T16:15:36.553Z,4.35
2023-05-18T16:18:03.820Z,5.03
2023-05-18T16:20:31.169Z,5.57
2023-05-18T16:22:58.741Z,4.68
2023-05-18T16:25:26.365Z,4.15
2023-05-18T16:27:53.288Z,4.78
2023-05-18T16:30:20.284Z,4.43
2023-05-18T16:32:47.413Z,4.55
2023-05-18T16:35:14.322Z,4.78
2023-05-18T16:37:41.306Z,4.80
2023-05-18T16:40:08.837Z,5.00
2023-05-18T16:42:35.903Z,5.25
2023-05-18T16:45:03.039Z,4.35
2023-05-18T16:47:32.696Z,4.40
2023-05-18T16:50:00.573Z,4.63
2023-05-18T16:52:27.734Z,4.43
2023-05-18T16:54:54.567Z,5.10
2023-05-18T16:57:22.121Z,4.50
2023-05-18T16:59:49.378Z,4.30
2023-05-18T17:02:17.773Z,3.75
2023-05-18T17:04:50.483Z,4.32
2023-05-18T17:07:17.634Z,4.68
2023-05-18T17:09:44.965Z,4.88
2023-05-18T17:12:12.526Z,5.13
2023-05-18T17:14:39.792Z,5.28
2023-05-18T17:17:07.698Z,4.90
2023-05-18T17:19:35.180Z,4.95
2023-05-18T17:22:03.529Z,5.22
2023-05-18T17:24:31.044Z,4.50
2023-05-18T17:26:58.306Z,5.18
2023-05-18T17:29:25.295Z,5.57
2023-05-18T17:31:52.383Z,5.35
2023-05-18T17:34:19.329Z,4.43
2023-05-18T17:36:46.496Z,4.78
2023-05-18T17:39:15.693Z,4.90
2023-05-18T17:41:43.944Z,5.55
2023-05-18T17:44:14.613Z,5.25
2023-05-18T17:46:42.069Z,4.97
2023-05-18T17:49:09.223Z,5.88
2023-05-18T17:51:36.278Z,4.53
2023-05-18T17:54:03.577Z,5.63
2023-05-18T17:56:31.680Z,5.60
2023-05-18T17:58:59.144Z,4.88
2023-05-18T18:01:27.245Z,4.88
2023-05-18T18:03:55.176Z,4.45
2023-05-18T18:06:22.860Z,4.43
2023-05-18T18:08:50.818Z,5.05
2023-05-18T18:11:17.919Z,4.93
2023-05-18T18:13:44.812Z,5.40
2023-05-18T18:16:12.020Z,5.15
2023-05-18T18:18:39.232Z,4.65
2023-05-18T18:21:06.620Z,5.30
2023-05-18T18:23:34.559Z,5.03
2023-05-18T18:26:02.376Z,5.22
2023-05-18T18:28:29.435Z,5.20
2023-05-18T18:30:56.877Z,5.50
2023-05-18T18:33:26.160Z,5.70
2023-05-18T18:35:54.670Z,4.88
2023-05-18T18:38:22.292Z,5.70
2023-05-18T18:40:49.577Z,5.57
2023-05-18T18:43:16.433Z,5.35
2023-05-18T18:45:43.558Z,5.90
2023-05-18T18:48:10.611Z,5.32
2023-05-18T18:50:37.603Z,5.72
2023-05-18T18:53:04.526Z,5.80
2023-05-18T18:55:31.723Z,5.38
2023-05-18T18:58:01.215Z,6.07
2023-05-18T19:00:28.267Z,4.65
2023-05-18T19:02:55.325Z,5.75
2023-05-18T19:05:24.225Z,4.78
2023-05-18T19:10:23.079Z,5.00
2023-05-18T19:12:50.010Z,5.32
2023-05-18T19:15:16.962Z,5.35
2023-05-18T19:17:45.992Z,4.88
2023-05-18T19:20:13.249Z,5.47
2023-05-18T19:22:40.404Z,5.35
2023-05-18T19:25:07.581Z,5.50
2023-05-18T19:27:34.513Z,6.10
2023-05-18T19:30:04.095Z,5.90
2023-05-18T19:32:31.754Z,5.75
2023-05-18T19:34:58.656Z,5.50
2023-05-18T19:37:25.674Z,5.05
2023-05-18T19:39:52.604Z,4.90
2023-05-18T19:42:19.531Z,5.30
2023-05-18T19:44:46.422Z,5.68
2023-05-18T19:47:13.387Z,5.75
2023-05-18T19:49:40.232Z,5.38
2023-05-18T19:52:09.424Z,5.82
2023-05-18T19:54:37.350Z,5.75
2023-05-18T19:57:04.511Z,5.93
2023-05-18T19:59:31.446Z,5.80
2023-05-18T20:01:59.442Z,6.20
2023-05-18T20:04:28.482Z,5.82
2023-05-18T20:06:59.710Z,6.13
2023-05-18T20:09:27.827Z,5.93
2023-05-18T20:11:56.207Z,5.57
2023-05-18T20:14:23.882Z,7.13
2023-05-18T20:16:56.157Z,6.82
2023-05-18T20:19:23.451Z,6.60
2023-05-18T20:21:50.496Z,7.25
2023-05-18T20:24:17.423Z,6.28
2023-05-18T20:26:44.492Z,6.78
2023-05-18T20:29:11.422Z,7.60
2023-05-18T20:31:38.550Z,7.35
2023-05-18T20:34:06.976Z,8.45
2023-05-18T20:36:35.837Z,7.18
2023-05-18T20:39:03.859Z,8.05
2023-05-18T20:41:30.797Z,7.45
2023-05-18T20:44:02.566Z,7.40
2023-05-18T20:46:31.188Z,7.63
2023-05-18T20:48:58.203Z,7.85
2023-05-18T20:51:25.348Z,7.05
2023-05-18T20:53:52.375Z,7.28
2023-05-18T20:56:19.294Z,7.90
2023-05-18T20:58:48.561Z,7.75
2023-05-18T21:01:16.749Z,8.27
2023-05-18T21:03:45.377Z,7.45
2023-05-18T21:06:15.228Z,7.25
2023-05-18T21:08:45.372Z,7.75
2023-05-18T21:11:12.433Z,8.23
2023-05-18T21:13:39.295Z,7.97
2023-05-18T21:16:08.439Z,7.57
2023-05-18T21:18:35.770Z,7.88
2023-05-18T21:21:03.458Z,7.57
2023-05-18T21:23:30.802Z,8.40
2023-05-18T21:25:58.215Z,8.20
2023-05-18T21:28:25.431Z,7.95
2023-05-18T21:30:53.967Z,7.47
2023-05-18T21:33:21.797Z,7.50
2023-05-18T21:35:49.275Z,7.28
2023-05-18T21:38:17.290Z,7.15
2023-05-18T21:40:44.419Z,7.95
2023-05-18T21:43:12.733Z,7.45
2023-05-18T21:45:40.318Z,7.60
2023-05-18T21:48:07.812Z,7.43
2023-05-18T21:50:35.496Z,6.90
2023-05-18T21:53:03.359Z,7.97
2023-05-18T21:55:31.677Z,6.97
2023-05-18T21:57:58.767Z,7.60
2023-05-18T22:00:26.177Z,8.32
2023-05-18T22:02:53.131Z,7.72
2023-05-18T22:05:20.163Z,9.27
2023-05-18T22:07:47.097Z,8.60
2023-05-18T22:10:14.103Z,8.85
2023-05-18T22:12:43.371Z,8.65
2023-05-18T22:15:10.852Z,8.45
2023-05-18T22:17:38.877Z,8.77
2023-05-18T22:20:09.403Z,9.82
2023-05-18T22:22:36.489Z,8.63
2023-05-18T22:25:03.422Z,8.45
2023-05-18T22:27:30.498Z,9.95
2023-05-18T22:29:57.488Z,9.02
2023-05-18T22:32:24.865Z,11.07
2023-05-18T22:34:52.060Z,9.85
2023-05-18T22:37:19.103Z,11.30
2023-05-18T22:39:46.013Z,10.43
2023-05-18T22:42:12.963Z,10.23
2023-05-18T22:44:39.896Z,9.88
2023-05-18T22:47:06.920Z,9.63
2023-05-18T22:49:35.743Z,8.82
2023-05-18T22:52:06.682Z,8.65
2023-05-18T22:54:33.935Z,9.35
2023-05-18T22:57:00.886Z,8.70
2023-05-18T22:59:28.763Z,9.05
2023-05-18T23:01:55.810Z,8.98
2023-05-18T23:04:22.825Z,8.50
2023-05-18T23:06:50.752Z,8.52
2023-05-18T23:09:18.238Z,8.82
2023-05-18T23:11:45.211Z,9.30
2023-05-18T23:14:12.866Z,7.95
2023-05-18T23:16:42.628Z,8.93
2023-05-18T23:19:12.388Z,7.20
2023-05-18T23:21:40.525Z,8.05
2023-05-18T23:24:12.143Z,7.72
2023-05-18T23:26:43.538Z,7.55
2023-05-18T23:29:11.041Z,7.75
2023-05-18T23:31:38.163Z,8.35
2023-05-18T23:34:05.685Z,7.60
2023-05-18T23:36:36.771Z,8.43
2023-05-18T23:39:04.222Z,7.13
2023-05-18T23:41:32.137Z,8.10
2023-05-18T23:43:59.441Z,8.18
2023-05-18T23:46:26.683Z,8.27
2023-05-18T23:48:54.751Z,7.40
2023-05-18T23:51:22.198Z,8.98
2023-05-18T23:53:50.862Z,7.95
2023-05-18T23:56:18.374Z,7.88
2023-05-18T23:58:46.703Z,7.95
